الصفحة الرئيسية
METAR-TAF:

METAR-TAF

مطار :

ييكاتيرينبرغ, روسيا

دائرة عرض: 56-50N, خط طول: 060-38E, ارتفاع: 237 متر

مراقبة الطقس الحالي

تاريخ ووقت الإصدار 39 دقيقة قبل الساعة 00:30UTC
ريح 6 عقدة من الشمال الغربي
درجة الحرارة 15°درجة مئوية
الرطوبة 77%
ضغط 1008 hPa
الرؤية 10 كم أو أكثر
الغيوم لا تقل 1500 م ولا وجود لمزنة ركامية السحاب الأسود

METAR: USSS 240030Z 31003MPS CAVOK 15/11 Q1008 R26L/010060 R26R/010060 NOSIG RMK QFE736/0981

زمن: 06:09 (01:09 UTC)

توقعات

تاريخ ووقت الإصدار 2ساعات و 16 دقيقة قبل الساعة 22:53UTC
التوقعات صالحة من24 الساعة 00 UTC إلى 24 الساعة 24 UTC
ريح 12 عقدة من الشمال الغربي
الرؤية 10 كم أو أكثر
غيوم متفرقة على ارتفاع 2000 قدم, مزنة ركامية.
مؤقت
من 24 الساعة 03 UTC إلى 24 الساعة 12 UTC
ريح 23 عقدة من الشمال/الشمال الغربي
الرؤية: 6000 متر
زخات من الأمطار الخفيفة

TAF: USSS 232253Z 2400/2424 32006MPS 9999 SCT020CB TEMPO 2403/2412 33012MPS 6000 -SHRA

أرصاد الطقس والتوقعات من أكثر من 4000 مطار (تقارير الطقس للمطار METAR والتنبؤ بالطقس بالمطارTAF).

المحطات المتاحة هي النقط الصفراء والحمراء على الخريطة.

حرك المؤشر فوق النقطة لمعرفة اسم المحطة.

ثم انقر لمعرفة أرصاد وتوقعات الطقس.

لتغيير الخارطة: اضغط على الأزرار الخضراء مع رمز الصليب الأسود للتكبير. على الزر الأخضر مع شرطة للتصغير، أو على الأسهم الخضراء للخرائط المجاورة.


METAR-TAF: